createdAt,value
2018-03-30T00:02:13.700Z,97367.94
2018-03-30T00:04:42.781Z,97358.89
2018-03-30T00:07:11.126Z,97339.77
2018-03-30T00:09:56.132Z,97337.19
2018-03-30T00:12:27.185Z,97337.12
2018-03-30T00:14:56.116Z,97341.35
2018-03-30T00:17:25.201Z,97342.27
2018-03-30T00:19:53.603Z,97334.64
2018-03-30T00:22:21.963Z,97340.04
2018-03-30T00:24:51.028Z,97334.11
2018-03-30T00:27:19.353Z,97339.31
2018-03-30T00:29:50.093Z,97338.09
2018-03-30T00:32:18.468Z,97326.56
2018-03-30T00:34:46.790Z,97327.20
2018-03-30T00:37:15.104Z,97332.70
2018-03-30T00:39:43.456Z,97325.11
2018-03-30T00:42:12.949Z,97326.42
2018-03-30T00:44:41.282Z,97326.68
2018-03-30T00:47:10.084Z,97327.07
2018-03-30T00:49:40.858Z,97325.55
2018-03-30T00:52:09.948Z,97324.97
2018-03-30T00:54:38.312Z,97324.58
2018-03-30T00:57:06.699Z,97320.77
2018-03-30T00:59:35.020Z,97318.02
2018-03-30T01:02:03.385Z,97315.38
2018-03-30T01:04:31.712Z,97313.16
2018-03-30T01:07:00.571Z,97305.90
2018-03-30T01:09:29.016Z,97299.82
2018-03-30T01:11:57.332Z,97295.34
2018-03-30T01:14:26.258Z,97296.96
2018-03-30T01:16:54.693Z,97291.23
2018-03-30T01:19:23.036Z,97288.34
2018-03-30T01:21:51.951Z,97291.89
2018-03-30T01:24:20.822Z,97287.56
2018-03-30T01:26:49.543Z,97285.97
2018-03-30T01:29:18.344Z,97279.19
2018-03-30T01:31:46.777Z,97278.64
2018-03-30T01:34:15.969Z,97276.12
2018-03-30T01:36:44.825Z,97270.55
2018-03-30T01:39:13.565Z,97272.17
2018-03-30T01:41:44.623Z,97263.94
2018-03-30T01:44:13.900Z,97270.32
2018-03-30T01:46:43.771Z,97266.89
2018-03-30T01:49:12.688Z,97271.91
2018-03-30T01:51:43.524Z,97276.89
2018-03-30T01:54:11.863Z,97271.59
2018-03-30T01:56:40.199Z,97276.02
2018-03-30T01:59:08.679Z,97278.00
2018-03-30T02:01:37.014Z,97281.08
2018-03-30T02:04:05.341Z,97281.41
2018-03-30T02:06:34.472Z,97274.67
2018-03-30T02:09:02.788Z,97269.09
2018-03-30T02:11:31.146Z,97266.89
2018-03-30T02:14:00.126Z,97265.48
2018-03-30T02:16:30.236Z,97262.30
2018-03-30T02:18:59.378Z,97271.30
2018-03-30T02:21:27.788Z,97266.60
2018-03-30T02:23:56.120Z,97266.34
2018-03-30T02:26:25.952Z,97258.31
2018-03-30T02:28:58.572Z,97256.31
2018-03-30T02:31:27.641Z,97249.06
2018-03-30T02:33:57.868Z,97255.91
2018-03-30T02:36:27.266Z,97246.80
2018-03-30T02:38:57.127Z,97239.89
2018-03-30T02:41:25.570Z,97248.35
2018-03-30T02:43:54.524Z,97240.83
2018-03-30T02:46:23.608Z,97237.40
2018-03-30T02:48:52.399Z,97241.31
2018-03-30T02:51:20.781Z,97232.33
2018-03-30T02:53:50.169Z,97236.89
2018-03-30T02:56:19.381Z,97226.23
2018-03-30T02:58:47.710Z,97227.98
2018-03-30T03:01:16.052Z,97226.20
2018-03-30T03:03:45.646Z,97216.48
2018-03-30T03:06:14.247Z,97213.08
2018-03-30T03:08:43.829Z,97216.28
2018-03-30T03:11:12.239Z,97218.86
2018-03-30T03:13:40.559Z,97213.75
2018-03-30T03:16:08.888Z,97209.49
2018-03-30T03:18:37.236Z,97207.14
2018-03-30T03:21:06.304Z,97207.73
2018-03-30T03:23:35.145Z,97214.53
2018-03-30T03:26:03.496Z,97208.87
2018-03-30T03:28:32.532Z,97210.78
2018-03-30T03:31:01.573Z,97206.17
2018-03-30T03:33:29.895Z,97212.02
2018-03-30T03:35:58.295Z,97206.02
2018-03-30T03:38:27.603Z,97202.91
2018-03-30T03:40:55.927Z,97201.97
2018-03-30T03:43:24.615Z,97207.48
2018-03-30T03:45:52.941Z,97203.74
2018-03-30T03:48:22.916Z,97202.17
2018-03-30T03:50:51.937Z,97201.64
2018-03-30T03:53:20.281Z,97193.65
2018-03-30T03:55:48.824Z,97189.97
2018-03-30T03:58:17.557Z,97189.94
2018-03-30T04:00:45.880Z,97179.12
2018-03-30T04:03:14.481Z,97180.56
2018-03-30T04:05:43.344Z,97172.98
2018-03-30T04:08:11.673Z,97175.45
2018-03-30T04:10:39.988Z,97168.89
2018-03-30T04:13:09.788Z,97166.37
2018-03-30T04:15:38.136Z,97164.09
2018-03-30T04:18:06.475Z,97174.42
2018-03-30T04:20:35.471Z,97175.70
2018-03-30T04:23:04.288Z,97174.10
2018-03-30T04:25:32.952Z,97176.41
2018-03-30T04:28:01.420Z,97178.95
2018-03-30T04:30:34.120Z,97163.83
2018-03-30T04:33:02.553Z,97158.44
2018-03-30T04:35:31.591Z,97151.69
2018-03-30T04:38:00.611Z,97160.84
2018-03-30T04:40:29.764Z,97158.78
2018-03-30T04:42:58.856Z,97158.73
2018-03-30T04:45:31.072Z,97159.02
2018-03-30T04:48:00.128Z,97156.83
2018-03-30T04:50:29.374Z,97151.25
2018-03-30T04:52:59.443Z,97154.64
2018-03-30T04:55:28.447Z,97154.45
2018-03-30T04:57:57.532Z,97154.69
2018-03-30T05:00:26.603Z,97160.55
2018-03-30T05:02:54.924Z,97165.48
2018-03-30T05:05:23.919Z,97162.25
2018-03-30T05:07:52.283Z,97160.42
2018-03-30T05:10:21.512Z,97157.47
2018-03-30T05:12:50.484Z,97157.34
2018-03-30T05:15:19.392Z,97153.98
2018-03-30T05:17:48.312Z,97155.14
2018-03-30T05:20:16.906Z,97160.20
2018-03-30T05:22:46.804Z,97153.59
2018-03-30T05:25:15.903Z,97157.16
2018-03-30T05:27:44.385Z,97144.95
2018-03-30T05:30:13.246Z,97144.94
2018-03-30T05:32:41.619Z,97138.11
2018-03-30T05:35:10.613Z,97129.60
2018-03-30T05:37:39.717Z,97128.72
2018-03-30T05:40:08.072Z,97121.03
2018-03-30T05:42:37.116Z,97124.70
2018-03-30T05:45:05.587Z,97125.97
2018-03-30T05:47:35.345Z,97128.95
2018-03-30T05:50:03.740Z,97133.92
2018-03-30T05:52:33.480Z,97125.63
2018-03-30T05:55:02.631Z,97130.48
2018-03-30T05:57:31.824Z,97128.12
2018-03-30T06:00:00.494Z,97124.55
2018-03-30T06:02:28.824Z,97119.92
2018-03-30T06:04:58.129Z,97117.35
2018-03-30T06:07:26.459Z,97112.34
2018-03-30T06:09:54.804Z,97112.67
2018-03-30T06:12:24.958Z,97119.37
2018-03-30T06:14:53.787Z,97119.52
2018-03-30T06:17:22.165Z,97115.14
2018-03-30T06:19:50.506Z,97109.59
2018-03-30T06:22:18.948Z,97103.90
2018-03-30T06:24:47.264Z,97104.08
2018-03-30T06:27:15.988Z,97103.81
2018-03-30T06:29:44.771Z,97094.65
2018-03-30T06:32:13.087Z,97089.00
2018-03-30T06:34:41.443Z,97088.39
2018-03-30T06:37:10.153Z,97085.69
2018-03-30T06:39:38.996Z,97078.66
2018-03-30T06:42:08.223Z,97078.77
2018-03-30T06:44:36.640Z,97079.40
2018-03-30T06:47:05.376Z,97076.30
2018-03-30T06:49:34.521Z,97082.98
2018-03-30T06:52:02.842Z,97079.28
2018-03-30T06:54:31.936Z,97080.08
2018-03-30T06:57:01.033Z,97082.67
2018-03-30T06:59:30.044Z,97077.73
2018-03-30T07:01:59.154Z,97082.95
2018-03-30T07:04:27.540Z,97082.77
2018-03-30T07:06:56.595Z,97078.37
2018-03-30T07:09:25.607Z,97075.86
2018-03-30T07:11:53.989Z,97070.92
2018-03-30T07:14:22.344Z,97068.77
2018-03-30T07:16:51.276Z,97067.19
2018-03-30T07:19:19.736Z,97057.86
2018-03-30T07:21:48.803Z,97051.73
2018-03-30T07:24:17.132Z,97051.47
2018-03-30T07:26:47.000Z,97050.66
2018-03-30T07:29:16.083Z,97056.18
2018-03-30T07:31:45.042Z,97056.35
2018-03-30T07:34:13.404Z,97045.09
2018-03-30T07:36:42.428Z,97038.32
2018-03-30T07:39:10.823Z,97036.36
2018-03-30T07:41:39.816Z,97028.30
2018-03-30T07:44:08.915Z,97029.19
2018-03-30T07:46:37.241Z,97032.05
2018-03-30T07:49:06.774Z,97025.41
2018-03-30T07:51:35.356Z,97020.77
2018-03-30T07:54:03.672Z,97021.37
2018-03-30T07:56:37.687Z,97011.61
2018-03-30T07:59:06.994Z,97017.48
2018-03-30T08:01:35.875Z,97008.97
2018-03-30T08:04:04.392Z,97005.17
2018-03-30T08:06:34.885Z,96993.58
2018-03-30T08:09:03.431Z,96988.63
2018-03-30T08:11:33.187Z,96982.23
2018-03-30T08:14:02.109Z,96978.61
2018-03-30T08:16:30.439Z,96967.72
2018-03-30T08:18:59.496Z,96972.06
2018-03-30T08:21:28.600Z,96965.02
2018-03-30T08:23:57.256Z,96963.64
2018-03-30T08:26:25.613Z,96952.42
2018-03-30T08:28:55.099Z,96944.99
2018-03-30T08:31:24.345Z,96942.31
2018-03-30T08:33:52.720Z,96931.41
2018-03-30T08:36:21.036Z,96936.35
2018-03-30T08:38:50.270Z,96928.74
2018-03-30T08:41:20.027Z,96927.36
2018-03-30T08:43:48.797Z,96920.09
2018-03-30T08:46:17.800Z,96923.36
2018-03-30T08:48:46.232Z,96912.75
2018-03-30T08:51:15.349Z,96904.81
2018-03-30T08:53:44.593Z,96907.55
2018-03-30T08:56:13.499Z,96904.16
2018-03-30T08:58:42.489Z,96902.06
2018-03-30T09:01:11.715Z,96897.81
2018-03-30T09:03:40.899Z,96897.02
2018-03-30T09:06:09.906Z,96891.75
2018-03-30T09:08:39.014Z,96888.33
2018-03-30T09:11:08.049Z,96881.16
2018-03-30T09:13:36.420Z,96872.52
2018-03-30T09:16:05.258Z,96875.52
2018-03-30T09:18:33.690Z,96868.19
2018-03-30T09:21:02.067Z,96859.58
2018-03-30T09:23:30.560Z,96854.73
2018-03-30T09:25:58.889Z,96851.88
2018-03-30T09:28:27.647Z,96845.55
2018-03-30T09:30:56.692Z,96831.80
2018-03-30T09:33:28.943Z,96833.38
2018-03-30T09:35:58.162Z,96824.69
2018-03-30T09:38:26.483Z,96819.28
2018-03-30T09:40:55.708Z,96810.14
2018-03-30T09:43:24.032Z,96800.05
2018-03-30T09:45:52.336Z,96798.72
2018-03-30T09:48:20.687Z,96780.34
2018-03-30T09:50:50.303Z,96779.27
2018-03-30T09:53:19.752Z,96780.09
2018-03-30T09:55:48.718Z,96772.67
2018-03-30T09:58:17.810Z,96779.14
2018-03-30T10:00:46.126Z,96772.25
2018-03-30T10:03:15.251Z,96756.98
2018-03-30T10:05:43.560Z,96745.62
2018-03-30T10:08:11.884Z,96743.27
2018-03-30T10:10:40.253Z,96740.02
2018-03-30T10:13:09.677Z,96738.40
2018-03-30T10:15:37.993Z,96722.16
2018-03-30T10:18:06.482Z,96718.89
2018-03-30T10:20:35.163Z,96708.67
2018-03-30T10:23:03.472Z,96710.75
2018-03-30T10:25:31.812Z,96697.33
2018-03-30T10:28:00.248Z,96701.44
2018-03-30T10:30:29.436Z,96689.02
2018-03-30T10:32:57.752Z,96690.63
2018-03-30T10:35:26.621Z,96679.83
2018-03-30T10:37:54.970Z,96681.90
2018-03-30T10:40:23.308Z,96666.64
2018-03-30T10:42:52.276Z,96664.87
2018-03-30T10:45:20.744Z,96661.50
2018-03-30T10:47:49.698Z,96658.03
2018-03-30T10:50:18.010Z,96658.74
2018-03-30T10:52:46.659Z,96652.86
2018-03-30T10:55:15.518Z,96648.13
2018-03-30T10:57:44.658Z,96640.75
2018-03-30T11:00:13.685Z,96636.44
2018-03-30T11:02:42.742Z,96641.44
2018-03-30T11:05:11.145Z,96646.46
2018-03-30T11:07:39.997Z,96636.94
2018-03-30T11:10:08.505Z,96642.61
2018-03-30T11:12:36.904Z,96636.92
2018-03-30T11:15:05.680Z,96635.62
2018-03-30T11:17:34.779Z,96634.33
2018-03-30T11:20:03.852Z,96635.81
2018-03-30T11:22:33.089Z,96626.48
2018-03-30T11:25:01.598Z,96622.59
2018-03-30T11:27:30.440Z,96619.34
2018-03-30T11:29:59.355Z,96626.30
2018-03-30T11:32:27.682Z,96631.79
2018-03-30T11:34:57.726Z,96626.50
2018-03-30T11:37:26.649Z,96611.37
2018-03-30T11:39:54.957Z,96612.28
2018-03-30T11:42:23.307Z,96621.95
2018-03-30T11:44:51.616Z,96611.05
2018-03-30T11:47:19.978Z,96609.86
2018-03-30T11:49:48.328Z,96608.05
2018-03-30T11:52:16.645Z,96610.70
2018-03-30T11:54:45.595Z,96611.77
2018-03-30T11:57:16.308Z,96609.17
2018-03-30T11:59:44.674Z,96591.53
2018-03-30T12:02:13.712Z,96591.20
2018-03-30T12:04:42.105Z,96585.98
2018-03-30T12:07:10.408Z,96578.33
2018-03-30T12:09:38.868Z,96582.30
2018-03-30T12:12:07.320Z,96573.94
2018-03-30T12:14:35.645Z,96583.48
2018-03-30T12:17:04.151Z,96572.30
2018-03-30T12:19:32.697Z,96562.53
2018-03-30T12:22:01.008Z,96560.51
2018-03-30T12:24:30.617Z,96558.12
2018-03-30T12:27:04.701Z,96552.45
2018-03-30T12:29:33.048Z,96545.52
2018-03-30T12:32:01.368Z,96538.27
2018-03-30T12:34:29.698Z,96537.00
2018-03-30T12:36:58.074Z,96520.13
2018-03-30T12:39:27.488Z,96505.14
2018-03-30T12:41:55.816Z,96498.63
2018-03-30T12:44:24.217Z,96504.17
2018-03-30T12:46:52.532Z,96488.63
2018-03-30T12:49:21.483Z,96490.70
2018-03-30T12:51:50.726Z,96475.67
2018-03-30T12:54:19.437Z,96470.25
2018-03-30T12:56:47.909Z,96466.98
2018-03-30T12:59:16.310Z,96463.81
2018-03-30T13:01:44.383Z,96459.63
2018-03-30T13:04:13.701Z,96462.28
2018-03-30T13:06:42.660Z,96447.09
2018-03-30T13:09:11.688Z,96450.92
2018-03-30T13:11:41.164Z,96448.55
2018-03-30T13:14:09.530Z,96452.11
2018-03-30T13:16:38.401Z,96460.38
2018-03-30T13:19:06.940Z,96449.58
2018-03-30T13:21:35.634Z,96460.81
2018-03-30T13:24:05.481Z,96465.17
2018-03-30T13:26:33.929Z,96458.97
2018-03-30T13:29:02.288Z,96451.62
2018-03-30T13:31:30.591Z,96442.61
2018-03-30T13:33:59.748Z,96434.87
2018-03-30T13:36:28.572Z,96420.94
2018-03-30T13:38:57.651Z,96413.12
2018-03-30T13:41:26.148Z,96410.02
2018-03-30T13:43:55.156Z,96409.88
2018-03-30T13:46:23.467Z,96401.94
2018-03-30T13:48:57.321Z,96391.38
2018-03-30T13:51:52.500Z,96400.12
2018-03-30T13:54:23.140Z,96386.66
2018-03-30T14:10:25.988Z,96333.97
2018-03-30T14:12:54.343Z,96310.72
2018-03-30T14:15:33.296Z,96305.63
2018-03-30T14:31:34.875Z,96268.88
2018-03-30T14:34:08.624Z,96254.18
2018-03-30T14:36:41.567Z,96252.34
2018-03-30T14:39:14.454Z,96252.03
2018-03-30T14:41:42.822Z,96260.47
2018-03-30T14:44:12.801Z,96258.06
2018-03-30T14:46:47.331Z,96250.24
2018-03-30T14:49:17.499Z,96245.27
2018-03-30T15:05:39.740Z,96227.54
2018-03-30T15:08:23.563Z,96207.80
2018-03-30T15:11:04.822Z,96206.16
2018-03-30T15:13:52.901Z,96204.03
2018-03-30T15:29:52.211Z,96228.78
2018-03-30T15:32:31.123Z,96226.44
2018-03-30T15:34:59.484Z,96230.52
2018-03-30T15:37:27.874Z,96225.68
2018-03-30T15:40:04.956Z,96232.78
2018-03-30T15:55:58.409Z,96244.09
2018-03-30T15:58:26.949Z,96240.27
2018-03-30T16:00:55.273Z,96233.22
2018-03-30T16:03:23.641Z,96224.81
2018-03-30T16:05:51.939Z,96222.34
2018-03-30T16:08:21.023Z,96224.95
2018-03-30T16:24:31.459Z,96217.98
2018-03-30T16:26:58.984Z,96216.20
2018-03-30T16:29:26.547Z,96215.39
2018-03-30T16:31:55.618Z,96216.35
2018-03-30T16:34:23.636Z,96216.40
2018-03-30T16:36:51.903Z,96217.54
2018-03-30T16:39:20.182Z,96205.63
2018-03-30T16:41:49.299Z,96199.61
2018-03-30T16:44:18.064Z,96207.17
2018-03-30T16:46:46.775Z,96208.35
2018-03-30T16:49:14.350Z,96208.08
2018-03-30T16:51:42.522Z,96213.61
2018-03-30T16:54:10.060Z,96220.64
2018-03-30T16:56:37.640Z,96218.69
2018-03-30T16:59:05.166Z,96221.03
2018-03-30T17:01:32.681Z,96220.67
2018-03-30T17:04:00.272Z,96226.33
2018-03-30T17:06:28.088Z,96228.52
2018-03-30T17:08:56.874Z,96231.88
2018-03-30T17:11:25.688Z,96244.37
2018-03-30T17:13:53.248Z,96256.48
2018-03-30T17:16:21.847Z,96264.92
2018-03-30T17:18:49.462Z,96277.48
2018-03-30T17:21:17.776Z,96286.20
2018-03-30T17:23:45.440Z,96298.11
2018-03-30T17:26:13.350Z,96304.51
2018-03-30T17:28:40.880Z,96313.97
2018-03-30T17:31:08.892Z,96331.13
2018-03-30T17:33:39.818Z,96353.48
2018-03-30T17:36:07.349Z,96370.27
2018-03-30T17:38:34.880Z,96375.67
2018-03-30T17:41:03.976Z,96371.73
2018-03-30T17:43:35.040Z,96377.38
2018-03-30T17:46:03.831Z,96384.94
2018-03-30T17:48:31.893Z,96393.67
2018-03-30T17:50:59.415Z,96395.19
2018-03-30T17:53:28.307Z,96403.08
2018-03-30T17:55:55.891Z,96397.27
2018-03-30T17:58:25.162Z,96407.08
2018-03-30T18:00:56.736Z,96413.53
2018-03-30T18:03:30.013Z,96417.13
2018-03-30T18:05:58.691Z,96428.20
2018-03-30T18:08:26.302Z,96430.77
2018-03-30T18:10:53.812Z,96431.50
2018-03-30T18:13:21.520Z,96420.66
2018-03-30T18:15:50.393Z,96421.54
2018-03-30T18:18:24.123Z,96420.53
2018-03-30T18:20:57.712Z,96429.09
2018-03-30T18:23:27.322Z,96436.92
2018-03-30T18:25:55.859Z,96442.56
2018-03-30T18:28:24.436Z,96450.61
2018-03-30T18:30:52.266Z,96454.16
2018-03-30T18:33:21.067Z,96453.66
2018-03-30T18:35:50.471Z,96452.98
2018-03-30T18:38:18.764Z,96459.00
2018-03-30T18:40:47.085Z,96457.02
2018-03-30T18:43:20.068Z,96461.34
2018-03-30T18:45:48.625Z,96462.55
2018-03-30T18:48:18.364Z,96460.77
2018-03-30T18:50:45.880Z,96468.48
2018-03-30T18:53:14.153Z,96471.70
2018-03-30T18:55:44.324Z,96480.88
2018-03-30T18:58:18.209Z,96497.49
2018-03-30T19:00:49.676Z,96507.33
2018-03-30T19:03:18.031Z,96513.43
2018-03-30T19:05:45.604Z,96524.38
2018-03-30T19:08:13.951Z,96525.19
2018-03-30T19:10:45.148Z,96525.27
2018-03-30T19:13:13.524Z,96526.19
2018-03-30T19:15:42.688Z,96523.75
2018-03-30T19:18:10.761Z,96515.88
2018-03-30T19:20:38.280Z,96499.79
2018-03-30T19:23:07.408Z,96486.11
2018-03-30T19:25:40.839Z,96507.55
2018-03-30T19:28:10.208Z,96514.69
2018-03-30T19:30:37.832Z,96505.97
2018-03-30T19:33:05.432Z,96505.63
2018-03-30T19:35:33.658Z,96511.33
2018-03-30T19:38:01.926Z,96510.02
2018-03-30T19:40:29.525Z,96518.90
2018-03-30T19:43:03.060Z,96517.95
2018-03-30T19:45:31.538Z,96523.78
2018-03-30T19:47:59.154Z,96523.55
2018-03-30T19:50:27.424Z,96523.59
2018-03-30T19:52:56.672Z,96530.47
2018-03-30T19:55:26.124Z,96534.96
2018-03-30T19:57:55.582Z,96536.35
2018-03-30T20:00:24.575Z,96543.96
2018-03-30T20:02:52.133Z,96543.49
2018-03-30T20:05:25.480Z,96539.17
2018-03-30T20:07:53.532Z,96526.57
2018-03-30T20:10:21.061Z,96523.17
2018-03-30T20:12:49.331Z,96517.45
2018-03-30T20:15:18.386Z,96523.59
2018-03-30T20:17:47.554Z,96522.81
2018-03-30T20:20:16.635Z,96527.41
2018-03-30T20:22:45.750Z,96521.73
2018-03-30T20:25:15.472Z,96516.36
2018-03-30T20:27:44.120Z,96506.95
2018-03-30T20:30:11.672Z,96497.39
2018-03-30T20:32:40.626Z,96492.75
2018-03-30T20:35:11.150Z,96491.56
2018-03-30T20:37:40.175Z,96494.86
2018-03-30T20:40:09.300Z,96497.21
2018-03-30T20:42:37.730Z,96496.80
2018-03-30T20:45:06.103Z,96501.64
2018-03-30T20:47:35.648Z,96506.25
2018-03-30T20:50:03.752Z,96504.80
2018-03-30T20:52:34.010Z,96502.48
2018-03-30T20:55:03.029Z,96503.64
2018-03-30T20:57:32.199Z,96507.95
2018-03-30T21:00:02.116Z,96522.44
2018-03-30T21:02:31.214Z,96529.01
2018-03-30T21:05:02.746Z,96533.58
2018-03-30T21:07:31.178Z,96547.87
2018-03-30T21:10:00.689Z,96544.38
2018-03-30T21:12:28.476Z,96544.38
2018-03-30T21:14:56.829Z,96539.84
2018-03-30T21:17:25.011Z,96539.23
2018-03-30T21:19:53.216Z,96534.58
2018-03-30T21:22:20.752Z,96524.20
2018-03-30T21:24:49.137Z,96528.73
2018-03-30T21:27:16.656Z,96527.92
2018-03-30T21:29:44.184Z,96532.77
2018-03-30T21:32:12.362Z,96534.61
2018-03-30T21:34:41.285Z,96538.48
2018-03-30T21:37:08.836Z,96539.70
2018-03-30T21:39:36.364Z,96553.14
2018-03-30T21:42:04.591Z,96558.37
2018-03-30T21:44:32.775Z,96561.89
2018-03-30T21:47:00.382Z,96570.13
2018-03-30T21:49:27.903Z,96570.44
2018-03-30T21:51:55.464Z,96569.69
2018-03-30T21:54:23.347Z,96574.19
2018-03-30T21:56:50.885Z,96570.55
2018-03-30T21:59:19.376Z,96563.52
2018-03-30T22:01:47.531Z,96563.33
2018-03-30T22:04:15.052Z,96560.53
2018-03-30T22:06:42.789Z,96566.77
2018-03-30T22:09:10.366Z,96571.05
2018-03-30T22:11:38.209Z,96568.45
2018-03-30T22:14:05.784Z,96562.17
2018-03-30T22:16:33.897Z,96559.33
2018-03-30T22:19:02.039Z,96550.16
2018-03-30T22:21:29.564Z,96545.97
2018-03-30T22:23:58.667Z,96545.24
2018-03-30T22:26:26.236Z,96547.09
2018-03-30T22:28:53.760Z,96551.02
2018-03-30T22:31:21.957Z,96554.82
2018-03-30T22:33:49.728Z,96558.64
2018-03-30T22:36:17.248Z,96556.72
2018-03-30T22:38:46.661Z,96554.24
2018-03-30T22:41:14.944Z,96550.58
2018-03-30T22:43:44.053Z,96560.30
2018-03-30T22:46:12.244Z,96557.47
2018-03-30T22:48:39.773Z,96549.26
2018-03-30T22:51:09.666Z,96543.80
2018-03-30T22:53:41.144Z,96553.47
2018-03-30T22:56:08.712Z,96546.14
2018-03-30T22:58:37.063Z,96543.20
2018-03-30T23:01:04.591Z,96548.84
2018-03-30T23:03:32.848Z,96545.89
2018-03-30T23:06:02.774Z,96544.23
2018-03-30T23:08:30.348Z,96543.36
2018-03-30T23:10:58.281Z,96547.44
2018-03-30T23:13:25.907Z,96550.44
2018-03-30T23:15:53.424Z,96542.92
2018-03-30T23:18:24.920Z,96537.09
2018-03-30T23:20:53.688Z,96539.38
2018-03-30T23:23:22.492Z,96531.80
2018-03-30T23:25:51.216Z,96524.28
2018-03-30T23:28:18.741Z,96519.83
2018-03-30T23:30:47.834Z,96512.88
2018-03-30T23:33:15.403Z,96511.00
2018-03-30T23:35:48.501Z,96509.69
2018-03-30T23:38:16.911Z,96502.44
2018-03-30T23:40:44.514Z,96500.77
2018-03-30T23:43:12.167Z,96507.02
2018-03-30T23:45:40.725Z,96513.94
2018-03-30T23:48:08.553Z,96518.45
2018-03-30T23:50:36.304Z,96517.84
2018-03-30T23:53:03.884Z,96526.13
2018-03-30T23:55:32.245Z,96510.47
2018-03-30T23:58:01.308Z,96502.63
